sensor_id;sensor_type;location;lat;lon;timestamp;P1;durP1;ratioP1;P2;durP2;ratioP2
20653;SDS011;21083;50.898;4.902;2024-01-06T00:01:17;12.60;;;4.63;;
20653;SDS011;21083;50.898;4.902;2024-01-06T00:03:44;15.30;;;3.85;;
20653;SDS011;21083;50.898;4.902;2024-01-06T00:06:11;18.60;;;4.50;;
20653;SDS011;21083;50.898;4.902;2024-01-06T00:08:38;11.25;;;3.50;;
20653;SDS011;21083;50.898;4.902;2024-01-06T00:11:05;16.27;;;4.65;;
20653;SDS011;21083;50.898;4.902;2024-01-06T00:13:33;12.32;;;3.80;;
20653;SDS011;21083;50.898;4.902;2024-01-06T00:16:02;12.30;;;4.40;;
20653;SDS011;21083;50.898;4.902;2024-01-06T00:18:30;15.73;;;4.32;;
20653;SDS011;21083;50.898;4.902;2024-01-06T00:20:57;13.48;;;3.80;;
20653;SDS011;21083;50.898;4.902;2024-01-06T00:23:23;11.50;;;3.50;;
20653;SDS011;21083;50.898;4.902;2024-01-06T00:25:50;11.70;;;3.47;;
20653;SDS011;21083;50.898;4.902;2024-01-06T00:28:17;14.27;;;3.63;;
20653;SDS011;21083;50.898;4.902;2024-01-06T00:30:45;13.93;;;4.88;;
20653;SDS011;21083;50.898;4.902;2024-01-06T00:33:13;9.90;;;3.85;;
20653;SDS011;21083;50.898;4.902;2024-01-06T00:35:40;11.40;;;3.80;;
20653;SDS011;21083;50.898;4.902;2024-01-06T00:38:08;9.88;;;3.78;;
20653;SDS011;21083;50.898;4.902;2024-01-06T00:40:35;17.88;;;4.50;;
20653;SDS011;21083;50.898;4.902;2024-01-06T00:43:02;13.45;;;4.40;;
20653;SDS011;21083;50.898;4.902;2024-01-06T00:45:29;13.27;;;4.45;;
20653;SDS011;21083;50.898;4.902;2024-01-06T00:47:56;13.57;;;4.72;;
20653;SDS011;21083;50.898;4.902;2024-01-06T00:50:25;10.15;;;5.07;;
20653;SDS011;21083;50.898;4.902;2024-01-06T00:52:52;14.30;;;5.50;;
20653;SDS011;21083;50.898;4.902;2024-01-06T00:55:19;14.40;;;5.28;;
20653;SDS011;21083;50.898;4.902;2024-01-06T00:57:46;18.15;;;5.00;;
20653;SDS011;21083;50.898;4.902;2024-01-06T01:00:13;17.08;;;5.20;;
20653;SDS011;21083;50.898;4.902;2024-01-06T01:02:40;10.30;;;4.88;;
20653;SDS011;21083;50.898;4.902;2024-01-06T01:05:07;16.33;;;5.60;;
20653;SDS011;21083;50.898;4.902;2024-01-06T01:07:36;16.23;;;5.15;;
20653;SDS011;21083;50.898;4.902;2024-01-06T01:10:03;17.38;;;6.00;;
20653;SDS011;21083;50.898;4.902;2024-01-06T01:12:30;12.77;;;5.95;;
20653;SDS011;21083;50.898;4.902;2024-01-06T01:14:57;13.98;;;6.10;;
20653;SDS011;21083;50.898;4.902;2024-01-06T01:17:24;13.48;;;5.97;;
20653;SDS011;21083;50.898;4.902;2024-01-06T01:19:51;15.73;;;6.28;;
20653;SDS011;21083;50.898;4.902;2024-01-06T01:22:18;17.30;;;6.93;;
20653;SDS011;21083;50.898;4.902;2024-01-06T01:24:47;15.30;;;6.55;;
20653;SDS011;21083;50.898;4.902;2024-01-06T01:27:14;13.35;;;6.30;;
20653;SDS011;21083;50.898;4.902;2024-01-06T01:29:41;14.95;;;6.72;;
20653;SDS011;21083;50.898;4.902;2024-01-06T01:32:08;12.25;;;5.95;;
20653;SDS011;21083;50.898;4.902;2024-01-06T01:34:35;12.38;;;6.43;;
20653;SDS011;21083;50.898;4.902;2024-01-06T01:37:02;14.57;;;6.78;;
20653;SDS011;21083;50.898;4.902;2024-01-06T01:39:29;14.60;;;6.65;;
20653;SDS011;21083;50.898;4.902;2024-01-06T01:41:57;18.58;;;7.03;;
20653;SDS011;21083;50.898;4.902;2024-01-06T01:44:24;12.55;;;6.35;;
20653;SDS011;21083;50.898;4.902;2024-01-06T01:46:51;12.38;;;5.80;;
20653;SDS011;21083;50.898;4.902;2024-01-06T01:49:18;17.58;;;6.30;;
20653;SDS011;21083;50.898;4.902;2024-01-06T01:51:45;13.50;;;5.28;;
20653;SDS011;21083;50.898;4.902;2024-01-06T01:54:13;9.80;;;4.50;;
20653;SDS011;21083;50.898;4.902;2024-01-06T01:56:40;11.45;;;5.57;;
20653;SDS011;21083;50.898;4.902;2024-01-06T01:59:11;13.43;;;5.53;;
20653;SDS011;21083;50.898;4.902;2024-01-06T02:01:39;9.43;;;4.90;;
20653;SDS011;21083;50.898;4.902;2024-01-06T02:04:06;9.38;;;4.45;;
20653;SDS011;21083;50.898;4.902;2024-01-06T02:06:34;11.13;;;4.85;;
20653;SDS011;21083;50.898;4.902;2024-01-06T02:09:01;9.00;;;4.53;;
20653;SDS011;21083;50.898;4.902;2024-01-06T02:11:28;9.75;;;5.20;;
20653;SDS011;21083;50.898;4.902;2024-01-06T02:13:55;10.55;;;5.35;;
20653;SDS011;21083;50.898;4.902;2024-01-06T02:16:24;9.95;;;4.75;;
20653;SDS011;21083;50.898;4.902;2024-01-06T02:18:51;10.13;;;5.28;;
20653;SDS011;21083;50.898;4.902;2024-01-06T02:21:17;9.45;;;4.93;;
20653;SDS011;21083;50.898;4.902;2024-01-06T02:23:49;10.95;;;5.43;;
20653;SDS011;21083;50.898;4.902;2024-01-06T02:26:16;10.48;;;5.70;;
20653;SDS011;21083;50.898;4.902;2024-01-06T02:28:43;12.32;;;5.43;;
20653;SDS011;21083;50.898;4.902;2024-01-06T02:31:12;12.70;;;5.55;;
20653;SDS011;21083;50.898;4.902;2024-01-06T02:33:39;10.63;;;5.03;;
20653;SDS011;21083;50.898;4.902;2024-01-06T02:36:07;11.70;;;5.93;;
20653;SDS011;21083;50.898;4.902;2024-01-06T02:38:34;11.68;;;5.55;;
20653;SDS011;21083;50.898;4.902;2024-01-06T02:41:02;13.57;;;5.40;;
20653;SDS011;21083;50.898;4.902;2024-01-06T02:43:29;10.77;;;4.65;;
20653;SDS011;21083;50.898;4.902;2024-01-06T02:45:56;10.35;;;4.53;;
20653;SDS011;21083;50.898;4.902;2024-01-06T02:48:23;10.23;;;4.43;;
20653;SDS011;21083;50.898;4.902;2024-01-06T02:50:50;14.35;;;4.90;;
20653;SDS011;21083;50.898;4.902;2024-01-06T02:53:17;10.75;;;4.03;;
20653;SDS011;21083;50.898;4.902;2024-01-06T02:55:44;8.40;;;4.15;;
20653;SDS011;21083;50.898;4.902;2024-01-06T02:58:12;9.27;;;4.13;;
20653;SDS011;21083;50.898;4.902;2024-01-06T03:00:39;9.32;;;4.20;;
20653;SDS011;21083;50.898;4.902;2024-01-06T03:03:05;9.05;;;4.05;;
20653;SDS011;21083;50.898;4.902;2024-01-06T03:05:32;12.18;;;5.13;;
20653;SDS011;21083;50.898;4.902;2024-01-06T03:07:59;11.75;;;5.18;;
20653;SDS011;21083;50.898;4.902;2024-01-06T03:10:26;12.40;;;6.00;;
20653;SDS011;21083;50.898;4.902;2024-01-06T03:12:53;13.63;;;6.45;;
20653;SDS011;21083;50.898;4.902;2024-01-06T03:15:22;15.60;;;7.20;;
20653;SDS011;21083;50.898;4.902;2024-01-06T03:17:49;22.48;;;7.47;;
20653;SDS011;21083;50.898;4.902;2024-01-06T03:20:16;18.67;;;8.48;;
20653;SDS011;21083;50.898;4.902;2024-01-06T03:22:43;17.30;;;8.65;;
20653;SDS011;21083;50.898;4.902;2024-01-06T03:25:10;23.33;;;9.35;;
20653;SDS011;21083;50.898;4.902;2024-01-06T03:27:37;20.65;;;9.25;;
20653;SDS011;21083;50.898;4.902;2024-01-06T03:30:04;20.77;;;9.50;;
20653;SDS011;21083;50.898;4.902;2024-01-06T03:32:33;23.23;;;10.18;;
20653;SDS011;21083;50.898;4.902;2024-01-06T03:35:00;22.60;;;10.15;;
20653;SDS011;21083;50.898;4.902;2024-01-06T03:37:27;20.08;;;9.95;;
20653;SDS011;21083;50.898;4.902;2024-01-06T03:39:54;24.77;;;10.65;;
20653;SDS011;21083;50.898;4.902;2024-01-06T03:42:21;22.63;;;9.85;;
20653;SDS011;21083;50.898;4.902;2024-01-06T03:44:48;22.60;;;10.88;;
20653;SDS011;21083;50.898;4.902;2024-01-06T03:47:15;27.45;;;11.52;;
20653;SDS011;21083;50.898;4.902;2024-01-06T03:49:44;23.77;;;10.70;;
20653;SDS011;21083;50.898;4.902;2024-01-06T03:52:12;21.38;;;8.75;;
20653;SDS011;21083;50.898;4.902;2024-01-06T03:54:39;20.73;;;9.90;;
20653;SDS011;21083;50.898;4.902;2024-01-06T03:57:06;19.55;;;8.70;;
20653;SDS011;21083;50.898;4.902;2024-01-06T03:59:33;18.17;;;9.18;;
20653;SDS011;21083;50.898;4.902;2024-01-06T04:02:00;22.05;;;9.55;;
20653;SDS011;21083;50.898;4.902;2024-01-06T04:04:27;22.73;;;9.50;;
20653;SDS011;21083;50.898;4.902;2024-01-06T04:06:55;24.45;;;9.35;;
20653;SDS011;21083;50.898;4.902;2024-01-06T04:09:22;19.77;;;8.98;;
20653;SDS011;21083;50.898;4.902;2024-01-06T04:11:49;20.30;;;9.52;;
20653;SDS011;21083;50.898;4.902;2024-01-06T04:14:16;19.50;;;8.82;;
20653;SDS011;21083;50.898;4.902;2024-01-06T04:16:43;20.08;;;9.88;;
20653;SDS011;21083;50.898;4.902;2024-01-06T04:19:10;20.65;;;9.45;;
20653;SDS011;21083;50.898;4.902;2024-01-06T04:21:38;17.67;;;8.27;;
20653;SDS011;21083;50.898;4.902;2024-01-06T04:24:06;22.48;;;10.45;;
20653;SDS011;21083;50.898;4.902;2024-01-06T04:26:33;21.00;;;10.35;;
20653;SDS011;21083;50.898;4.902;2024-01-06T04:29:00;21.55;;;10.05;;
20653;SDS011;21083;50.898;4.902;2024-01-06T04:31:27;20.67;;;9.88;;
20653;SDS011;21083;50.898;4.902;2024-01-06T04:33:54;22.35;;;10.45;;
20653;SDS011;21083;50.898;4.902;2024-01-06T04:36:21;25.40;;;10.90;;
20653;SDS011;21083;50.898;4.902;2024-01-06T04:38:48;23.08;;;10.10;;
20653;SDS011;21083;50.898;4.902;2024-01-06T04:41:17;23.48;;;10.75;;
20653;SDS011;21083;50.898;4.902;2024-01-06T04:43:43;24.33;;;10.77;;
20653;SDS011;21083;50.898;4.902;2024-01-06T04:46:10;24.40;;;10.30;;
20653;SDS011;21083;50.898;4.902;2024-01-06T04:48:37;24.80;;;11.50;;
20653;SDS011;21083;50.898;4.902;2024-01-06T04:51:06;23.00;;;10.95;;
20653;SDS011;21083;50.898;4.902;2024-01-06T04:53:35;24.00;;;11.20;;
20653;SDS011;21083;50.898;4.902;2024-01-06T04:56:02;23.50;;;10.82;;
20653;SDS011;21083;50.898;4.902;2024-01-06T04:58:31;21.73;;;10.77;;
20653;SDS011;21083;50.898;4.902;2024-01-06T05:00:59;26.30;;;11.77;;
20653;SDS011;21083;50.898;4.902;2024-01-06T05:03:27;22.80;;;11.35;;
20653;SDS011;21083;50.898;4.902;2024-01-06T05:05:53;23.13;;;11.60;;
20653;SDS011;21083;50.898;4.902;2024-01-06T05:08:20;24.55;;;11.23;;
20653;SDS011;21083;50.898;4.902;2024-01-06T05:10:47;25.10;;;10.85;;
20653;SDS011;21083;50.898;4.902;2024-01-06T05:13:14;22.88;;;11.10;;
20653;SDS011;21083;50.898;4.902;2024-01-06T05:15:43;21.80;;;10.85;;
20653;SDS011;21083;50.898;4.902;2024-01-06T05:18:10;21.23;;;10.75;;
20653;SDS011;21083;50.898;4.902;2024-01-06T05:20:37;21.40;;;11.00;;
20653;SDS011;21083;50.898;4.902;2024-01-06T05:23:06;24.63;;;11.05;;
20653;SDS011;21083;50.898;4.902;2024-01-06T05:25:33;21.92;;;10.98;;
20653;SDS011;21083;50.898;4.902;2024-01-06T05:27:59;21.13;;;10.43;;
20653;SDS011;21083;50.898;4.902;2024-01-06T05:30:26;25.90;;;11.57;;
20653;SDS011;21083;50.898;4.902;2024-01-06T05:32:55;21.50;;;10.13;;
20653;SDS011;21083;50.898;4.902;2024-01-06T05:35:22;28.00;;;12.00;;
20653;SDS011;21083;50.898;4.902;2024-01-06T05:37:49;20.77;;;10.13;;
20653;SDS011;21083;50.898;4.902;2024-01-06T05:40:16;21.17;;;10.32;;
20653;SDS011;21083;50.898;4.902;2024-01-06T05:42:43;21.55;;;10.02;;
20653;SDS011;21083;50.898;4.902;2024-01-06T05:45:10;20.38;;;9.88;;
20653;SDS011;21083;50.898;4.902;2024-01-06T05:47:38;24.70;;;11.07;;
20653;SDS011;21083;50.898;4.902;2024-01-06T05:50:07;23.33;;;10.27;;
20653;SDS011;21083;50.898;4.902;2024-01-06T05:52:35;20.30;;;10.15;;
20653;SDS011;21083;50.898;4.902;2024-01-06T05:55:02;19.98;;;10.30;;
20653;SDS011;21083;50.898;4.902;2024-01-06T05:57:30;25.45;;;10.82;;
20653;SDS011;21083;50.898;4.902;2024-01-06T05:59:57;20.60;;;10.32;;
20653;SDS011;21083;50.898;4.902;2024-01-06T06:02:25;19.95;;;9.88;;
20653;SDS011;21083;50.898;4.902;2024-01-06T06:04:52;20.77;;;10.02;;
20653;SDS011;21083;50.898;4.902;2024-01-06T06:07:20;20.27;;;10.23;;
20653;SDS011;21083;50.898;4.902;2024-01-06T06:09:47;19.35;;;10.13;;
20653;SDS011;21083;50.898;4.902;2024-01-06T06:12:14;19.40;;;10.20;;
20653;SDS011;21083;50.898;4.902;2024-01-06T06:14:41;20.17;;;9.63;;
20653;SDS011;21083;50.898;4.902;2024-01-06T06:17:08;17.90;;;9.00;;
20653;SDS011;21083;50.898;4.902;2024-01-06T06:19:35;18.42;;;9.73;;
20653;SDS011;21083;50.898;4.902;2024-01-06T06:22:03;18.92;;;9.90;;
20653;SDS011;21083;50.898;4.902;2024-01-06T06:24:31;20.45;;;9.23;;
20653;SDS011;21083;50.898;4.902;2024-01-06T06:26:58;17.80;;;9.13;;
20653;SDS011;21083;50.898;4.902;2024-01-06T06:29:25;20.30;;;9.65;;
20653;SDS011;21083;50.898;4.902;2024-01-06T06:31:54;28.10;;;9.80;;
20653;SDS011;21083;50.898;4.902;2024-01-06T06:34:20;22.38;;;9.45;;
20653;SDS011;21083;50.898;4.902;2024-01-06T06:36:48;20.45;;;9.98;;
20653;SDS011;21083;50.898;4.902;2024-01-06T06:39:15;20.45;;;10.02;;
20653;SDS011;21083;50.898;4.902;2024-01-06T06:41:44;21.73;;;9.75;;
20653;SDS011;21083;50.898;4.902;2024-01-06T06:44:11;20.10;;;9.10;;
20653;SDS011;21083;50.898;4.902;2024-01-06T06:46:38;22.70;;;10.50;;
20653;SDS011;21083;50.898;4.902;2024-01-06T06:49:05;21.50;;;9.77;;
20653;SDS011;21083;50.898;4.902;2024-01-06T06:51:32;17.50;;;9.18;;
20653;SDS011;21083;50.898;4.902;2024-01-06T06:53:59;19.20;;;10.52;;
20653;SDS011;21083;50.898;4.902;2024-01-06T06:56:26;20.65;;;10.40;;
20653;SDS011;21083;50.898;4.902;2024-01-06T06:58:54;22.33;;;10.13;;
20653;SDS011;21083;50.898;4.902;2024-01-06T07:01:21;22.08;;;10.15;;
20653;SDS011;21083;50.898;4.902;2024-01-06T07:03:48;20.35;;;11.27;;
20653;SDS011;21083;50.898;4.902;2024-01-06T07:06:15;20.75;;;10.38;;
20653;SDS011;21083;50.898;4.902;2024-01-06T07:08:42;22.48;;;11.30;;
20653;SDS011;21083;50.898;4.902;2024-01-06T07:11:09;20.92;;;11.27;;
20653;SDS011;21083;50.898;4.902;2024-01-06T07:13:36;22.60;;;11.77;;
20653;SDS011;21083;50.898;4.902;2024-01-06T07:16:05;22.05;;;11.10;;
20653;SDS011;21083;50.898;4.902;2024-01-06T07:18:32;21.30;;;10.93;;
20653;SDS011;21083;50.898;4.902;2024-01-06T07:20:59;21.40;;;10.98;;
20653;SDS011;21083;50.898;4.902;2024-01-06T07:23:26;22.17;;;10.90;;
20653;SDS011;21083;50.898;4.902;2024-01-06T07:25:55;21.15;;;10.13;;
20653;SDS011;21083;50.898;4.902;2024-01-06T07:28:22;20.13;;;11.05;;
20653;SDS011;21083;50.898;4.902;2024-01-06T07:30:49;22.65;;;10.13;;
20653;SDS011;21083;50.898;4.902;2024-01-06T07:33:17;19.27;;;10.13;;
20653;SDS011;21083;50.898;4.902;2024-01-06T07:35:44;21.75;;;10.73;;
20653;SDS011;21083;50.898;4.902;2024-01-06T07:38:11;22.38;;;10.73;;
20653;SDS011;21083;50.898;4.902;2024-01-06T07:40:38;19.75;;;10.57;;
20653;SDS011;21083;50.898;4.902;2024-01-06T07:43:05;19.55;;;9.73;;
20653;SDS011;21083;50.898;4.902;2024-01-06T07:45:32;22.40;;;9.52;;
20653;SDS011;21083;50.898;4.902;2024-01-06T07:47:59;25.35;;;10.43;;
20653;SDS011;21083;50.898;4.902;2024-01-06T07:50:28;21.25;;;9.88;;
20653;SDS011;21083;50.898;4.902;2024-01-06T07:52:55;20.42;;;9.55;;
20653;SDS011;21083;50.898;4.902;2024-01-06T07:55:23;20.02;;;10.35;;
20653;SDS011;21083;50.898;4.902;2024-01-06T07:57:53;20.50;;;10.10;;
20653;SDS011;21083;50.898;4.902;2024-01-06T08:00:20;19.52;;;9.90;;
20653;SDS011;21083;50.898;4.902;2024-01-06T08:02:47;21.40;;;10.32;;
20653;SDS011;21083;50.898;4.902;2024-01-06T08:05:14;18.40;;;9.02;;
20653;SDS011;21083;50.898;4.902;2024-01-06T08:07:43;22.40;;;10.13;;
20653;SDS011;21083;50.898;4.902;2024-01-06T08:10:10;15.80;;;8.45;;
20653;SDS011;21083;50.898;4.902;2024-01-06T08:12:37;17.98;;;8.70;;
20653;SDS011;21083;50.898;4.902;2024-01-06T08:15:04;21.70;;;9.57;;
20653;SDS011;21083;50.898;4.902;2024-01-06T08:17:32;20.15;;;9.75;;
20653;SDS011;21083;50.898;4.902;2024-01-06T08:20:00;18.17;;;9.23;;
20653;SDS011;21083;50.898;4.902;2024-01-06T08:22:28;19.52;;;8.60;;
20653;SDS011;21083;50.898;4.902;2024-01-06T08:24:56;18.58;;;8.75;;
20653;SDS011;21083;50.898;4.902;2024-01-06T08:27:23;18.55;;;9.10;;
20653;SDS011;21083;50.898;4.902;2024-01-06T08:29:50;20.63;;;8.35;;
20653;SDS011;21083;50.898;4.902;2024-01-06T08:32:17;20.05;;;9.00;;
20653;SDS011;21083;50.898;4.902;2024-01-06T08:34:44;19.33;;;7.75;;
20653;SDS011;21083;50.898;4.902;2024-01-06T08:37:11;19.35;;;8.93;;
20653;SDS011;21083;50.898;4.902;2024-01-06T08:39:38;17.70;;;8.05;;
20653;SDS011;21083;50.898;4.902;2024-01-06T08:42:06;19.50;;;9.13;;
20653;SDS011;21083;50.898;4.902;2024-01-06T08:44:33;18.95;;;8.63;;
20653;SDS011;21083;50.898;4.902;2024-01-06T08:47:00;17.63;;;8.98;;
20653;SDS011;21083;50.898;4.902;2024-01-06T08:49:28;24.48;;;10.23;;
20653;SDS011;21083;50.898;4.902;2024-01-06T08:51:54;16.45;;;8.38;;
20653;SDS011;21083;50.898;4.902;2024-01-06T08:54:21;18.80;;;8.30;;
20653;SDS011;21083;50.898;4.902;2024-01-06T08:56:48;18.35;;;9.07;;
20653;SDS011;21083;50.898;4.902;2024-01-06T08:59:16;20.10;;;9.52;;
20653;SDS011;21083;50.898;4.902;2024-01-06T09:01:45;17.83;;;8.98;;
20653;SDS011;21083;50.898;4.902;2024-01-06T09:04:12;17.90;;;8.88;;
20653;SDS011;21083;50.898;4.902;2024-01-06T09:06:39;18.80;;;8.90;;
20653;SDS011;21083;50.898;4.902;2024-01-06T09:09:07;16.83;;;8.05;;
20653;SDS011;21083;50.898;4.902;2024-01-06T09:11:34;20.25;;;8.68;;
20653;SDS011;21083;50.898;4.902;2024-01-06T09:14:01;23.42;;;9.85;;
20653;SDS011;21083;50.898;4.902;2024-01-06T09:16:30;18.30;;;8.45;;
20653;SDS011;21083;50.898;4.902;2024-01-06T09:18:56;16.52;;;8.63;;
20653;SDS011;21083;50.898;4.902;2024-01-06T09:21:23;18.13;;;9.02;;
20653;SDS011;21083;50.898;4.902;2024-01-06T09:23:51;17.23;;;8.20;;
20653;SDS011;21083;50.898;4.902;2024-01-06T09:26:18;19.25;;;8.82;;
20653;SDS011;21083;50.898;4.902;2024-01-06T09:28:45;18.05;;;8.00;;
20653;SDS011;21083;50.898;4.902;2024-01-06T09:31:12;18.13;;;7.70;;
20653;SDS011;21083;50.898;4.902;2024-01-06T09:33:41;17.05;;;8.52;;
20653;SDS011;21083;50.898;4.902;2024-01-06T09:36:08;17.67;;;8.35;;
20653;SDS011;21083;50.898;4.902;2024-01-06T09:38:37;17.75;;;8.07;;
20653;SDS011;21083;50.898;4.902;2024-01-06T09:41:04;19.10;;;8.32;;
20653;SDS011;21083;50.898;4.902;2024-01-06T09:43:31;18.05;;;8.10;;
20653;SDS011;21083;50.898;4.902;2024-01-06T09:45:58;15.88;;;7.47;;
20653;SDS011;21083;50.898;4.902;2024-01-06T09:48:32;20.80;;;8.70;;
20653;SDS011;21083;50.898;4.902;2024-01-06T09:51:06;21.05;;;8.73;;
20653;SDS011;21083;50.898;4.902;2024-01-06T09:53:39;17.75;;;8.88;;
20653;SDS011;21083;50.898;4.902;2024-01-06T09:56:14;16.17;;;7.43;;
20653;SDS011;21083;50.898;4.902;2024-01-06T09:58:42;15.30;;;6.80;;
20653;SDS011;21083;50.898;4.902;2024-01-06T10:01:10;17.85;;;7.35;;
20653;SDS011;21083;50.898;4.902;2024-01-06T10:03:37;15.90;;;6.85;;
20653;SDS011;21083;50.898;4.902;2024-01-06T10:06:05;15.75;;;7.25;;
20653;SDS011;21083;50.898;4.902;2024-01-06T10:08:34;16.48;;;8.13;;
20653;SDS011;21083;50.898;4.902;2024-01-06T10:11:01;15.95;;;6.97;;
20653;SDS011;21083;50.898;4.902;2024-01-06T10:13:28;14.93;;;6.88;;
20653;SDS011;21083;50.898;4.902;2024-01-06T10:15:55;15.10;;;6.47;;
20653;SDS011;21083;50.898;4.902;2024-01-06T10:18:23;18.80;;;7.57;;
20653;SDS011;21083;50.898;4.902;2024-01-06T10:20:52;17.67;;;7.18;;
20653;SDS011;21083;50.898;4.902;2024-01-06T10:23:21;17.40;;;7.15;;
20653;SDS011;21083;50.898;4.902;2024-01-06T10:25:51;15.32;;;7.00;;
20653;SDS011;21083;50.898;4.902;2024-01-06T10:28:19;16.38;;;7.00;;
20653;SDS011;21083;50.898;4.902;2024-01-06T10:30:47;17.95;;;6.93;;
20653;SDS011;21083;50.898;4.902;2024-01-06T10:33:15;14.43;;;6.25;;
20653;SDS011;21083;50.898;4.902;2024-01-06T10:35:42;14.15;;;6.22;;
20653;SDS011;21083;50.898;4.902;2024-01-06T10:38:10;12.10;;;5.97;;
20653;SDS011;21083;50.898;4.902;2024-01-06T10:40:39;13.55;;;6.38;;
20653;SDS011;21083;50.898;4.902;2024-01-06T10:43:06;14.45;;;6.70;;
20653;SDS011;21083;50.898;4.902;2024-01-06T10:45:33;12.63;;;5.93;;
20653;SDS011;21083;50.898;4.902;2024-01-06T10:48:01;14.13;;;6.57;;
20653;SDS011;21083;50.898;4.902;2024-01-06T10:50:31;12.88;;;5.53;;
20653;SDS011;21083;50.898;4.902;2024-01-06T10:52:59;12.70;;;5.47;;
20653;SDS011;21083;50.898;4.902;2024-01-06T10:55:28;13.68;;;5.50;;
20653;SDS011;21083;50.898;4.902;2024-01-06T10:57:58;13.90;;;6.22;;
20653;SDS011;21083;50.898;4.902;2024-01-06T11:00:26;15.23;;;5.53;;
20653;SDS011;21083;50.898;4.902;2024-01-06T11:02:54;14.25;;;5.72;;
20653;SDS011;21083;50.898;4.902;2024-01-06T11:05:22;15.25;;;6.18;;
20653;SDS011;21083;50.898;4.902;2024-01-06T11:07:50;14.07;;;6.50;;
20653;SDS011;21083;50.898;4.902;2024-01-06T11:10:20;11.98;;;5.50;;
20653;SDS011;21083;50.898;4.902;2024-01-06T11:15:39;16.15;;;5.68;;
20653;SDS011;21083;50.898;4.902;2024-01-06T11:18:10;14.68;;;5.68;;
20653;SDS011;21083;50.898;4.902;2024-01-06T11:21:16;14.15;;;5.10;;
20653;SDS011;21083;50.898;4.902;2024-01-06T11:23:50;11.95;;;4.90;;
20653;SDS011;21083;50.898;4.902;2024-01-06T11:26:38;11.45;;;4.85;;
20653;SDS011;21083;50.898;4.902;2024-01-06T11:29:06;11.02;;;4.93;;
20653;SDS011;21083;50.898;4.902;2024-01-06T11:31:34;11.10;;;4.47;;
20653;SDS011;21083;50.898;4.902;2024-01-06T11:34:12;12.32;;;4.88;;
20653;SDS011;21083;50.898;4.902;2024-01-06T11:36:40;10.90;;;4.93;;
20653;SDS011;21083;50.898;4.902;2024-01-06T11:42:02;10.00;;;4.43;;
20653;SDS011;21083;50.898;4.902;2024-01-06T11:44:30;11.85;;;4.90;;
20653;SDS011;21083;50.898;4.902;2024-01-06T11:47:00;11.30;;;4.63;;
20653;SDS011;21083;50.898;4.902;2024-01-06T11:49:29;13.07;;;4.90;;
20653;SDS011;21083;50.898;4.902;2024-01-06T11:51:56;10.30;;;4.03;;
20653;SDS011;21083;50.898;4.902;2024-01-06T11:54:23;9.52;;;4.43;;
20653;SDS011;21083;50.898;4.902;2024-01-06T11:56:50;11.55;;;4.47;;
20653;SDS011;21083;50.898;4.902;2024-01-06T11:59:19;10.18;;;4.60;;
20653;SDS011;21083;50.898;4.902;2024-01-06T12:01:47;11.90;;;4.35;;
20653;SDS011;21083;50.898;4.902;2024-01-06T12:04:14;11.73;;;4.97;;
20653;SDS011;21083;50.898;4.902;2024-01-06T12:06:42;11.50;;;4.65;;
20653;SDS011;21083;50.898;4.902;2024-01-06T12:09:10;9.23;;;4.20;;
20653;SDS011;21083;50.898;4.902;2024-01-06T12:11:40;8.90;;;3.88;;
20653;SDS011;21083;50.898;4.902;2024-01-06T12:14:10;8.70;;;3.85;;
20653;SDS011;21083;50.898;4.902;2024-01-06T12:16:37;11.98;;;4.63;;
20653;SDS011;21083;50.898;4.902;2024-01-06T12:19:05;9.98;;;4.68;;
20653;SDS011;21083;50.898;4.902;2024-01-06T12:21:32;11.70;;;3.97;;
20653;SDS011;21083;50.898;4.902;2024-01-06T12:26:55;9.98;;;4.53;;
20653;SDS011;21083;50.898;4.902;2024-01-06T12:29:23;14.70;;;6.90;;
20653;SDS011;21083;50.898;4.902;2024-01-06T12:31:53;12.40;;;4.53;;
20653;SDS011;21083;50.898;4.902;2024-01-06T12:34:21;10.43;;;4.60;;
20653;SDS011;21083;50.898;4.902;2024-01-06T12:36:48;9.35;;;3.78;;
20653;SDS011;21083;50.898;4.902;2024-01-06T12:39:20;10.40;;;5.22;;
20653;SDS011;21083;50.898;4.902;2024-01-06T12:41:48;11.65;;;4.63;;
20653;SDS011;21083;50.898;4.902;2024-01-06T12:44:16;11.00;;;6.45;;
20653;SDS011;21083;50.898;4.902;2024-01-06T12:46:43;31.08;;;19.30;;
20653;SDS011;21083;50.898;4.902;2024-01-06T12:49:10;14.80;;;8.52;;
20653;SDS011;21083;50.898;4.902;2024-01-06T12:51:38;13.23;;;6.57;;
20653;SDS011;21083;50.898;4.902;2024-01-06T12:54:05;10.57;;;5.53;;
20653;SDS011;21083;50.898;4.902;2024-01-06T12:56:32;11.05;;;5.22;;
20653;SDS011;21083;50.898;4.902;2024-01-06T12:58:59;9.45;;;4.30;;
20653;SDS011;21083;50.898;4.902;2024-01-06T13:01:26;11.40;;;4.90;;
20653;SDS011;21083;50.898;4.902;2024-01-06T13:03:53;10.63;;;5.25;;
20653;SDS011;21083;50.898;4.902;2024-01-06T13:06:20;12.45;;;5.35;;
20653;SDS011;21083;50.898;4.902;2024-01-06T13:08:48;17.25;;;6.70;;
20653;SDS011;21083;50.898;4.902;2024-01-06T13:11:15;11.55;;;5.22;;
20653;SDS011;21083;50.898;4.902;2024-01-06T13:13:43;12.10;;;5.38;;
20653;SDS011;21083;50.898;4.902;2024-01-06T13:16:10;12.30;;;5.30;;
20653;SDS011;21083;50.898;4.902;2024-01-06T13:18:37;10.02;;;4.53;;
20653;SDS011;21083;50.898;4.902;2024-01-06T13:21:04;12.45;;;4.78;;
20653;SDS011;21083;50.898;4.902;2024-01-06T13:23:31;11.38;;;5.05;;
20653;SDS011;21083;50.898;4.902;2024-01-06T13:25:59;15.90;;;5.93;;
20653;SDS011;21083;50.898;4.902;2024-01-06T13:28:26;12.50;;;5.05;;
20653;SDS011;21083;50.898;4.902;2024-01-06T13:30:53;13.65;;;5.68;;
20653;SDS011;21083;50.898;4.902;2024-01-06T13:33:20;11.23;;;5.78;;
20653;SDS011;21083;50.898;4.902;2024-01-06T13:35:47;13.23;;;6.05;;
20653;SDS011;21083;50.898;4.902;2024-01-06T13:38:13;14.75;;;7.35;;
20653;SDS011;21083;50.898;4.902;2024-01-06T13:40:41;16.00;;;7.88;;
20653;SDS011;21083;50.898;4.902;2024-01-06T13:43:09;12.85;;;6.20;;
20653;SDS011;21083;50.898;4.902;2024-01-06T13:45:40;13.48;;;6.63;;
20653;SDS011;21083;50.898;4.902;2024-01-06T13:48:08;13.05;;;6.63;;
20653;SDS011;21083;50.898;4.902;2024-01-06T13:50:35;17.50;;;7.13;;
20653;SDS011;21083;50.898;4.902;2024-01-06T13:53:02;15.05;;;6.82;;
20653;SDS011;21083;50.898;4.902;2024-01-06T13:55:31;16.25;;;7.18;;
20653;SDS011;21083;50.898;4.902;2024-01-06T13:57:58;13.75;;;7.70;;
20653;SDS011;21083;50.898;4.902;2024-01-06T14:00:27;14.18;;;7.07;;
20653;SDS011;21083;50.898;4.902;2024-01-06T14:02:54;17.80;;;7.72;;
20653;SDS011;21083;50.898;4.902;2024-01-06T14:05:21;15.98;;;6.63;;
20653;SDS011;21083;50.898;4.902;2024-01-06T14:07:48;13.18;;;6.93;;
20653;SDS011;21083;50.898;4.902;2024-01-06T14:10:15;18.30;;;6.72;;
20653;SDS011;21083;50.898;4.902;2024-01-06T14:12:42;13.38;;;7.13;;
20653;SDS011;21083;50.898;4.902;2024-01-06T14:15:09;15.00;;;7.10;;
20653;SDS011;21083;50.898;4.902;2024-01-06T14:17:38;15.75;;;6.70;;
20653;SDS011;21083;50.898;4.902;2024-01-06T14:20:06;17.58;;;7.35;;
20653;SDS011;21083;50.898;4.902;2024-01-06T14:22:37;15.88;;;7.35;;
20653;SDS011;21083;50.898;4.902;2024-01-06T14:25:05;15.30;;;7.15;;
20653;SDS011;21083;50.898;4.902;2024-01-06T14:27:32;17.55;;;7.57;;
20653;SDS011;21083;50.898;4.902;2024-01-06T14:29:59;12.52;;;6.90;;
20653;SDS011;21083;50.898;4.902;2024-01-06T14:32:26;13.90;;;6.78;;
20653;SDS011;21083;50.898;4.902;2024-01-06T14:34:55;17.80;;;7.65;;
20653;SDS011;21083;50.898;4.902;2024-01-06T14:37:22;18.83;;;8.05;;
20653;SDS011;21083;50.898;4.902;2024-01-06T14:39:49;13.80;;;7.47;;
20653;SDS011;21083;50.898;4.902;2024-01-06T14:42:16;17.52;;;8.65;;
20653;SDS011;21083;50.898;4.902;2024-01-06T14:44:44;44.10;;;21.63;;